Time;durP1;ratioP1;P1;durP2;ratioP2;P2;SDS_P1;SDS_P2;PMS_P1;PMS_P2;Temp;Humidity;BMP_temperature;BMP_pressure;BME280_temperature;BME280_humidity;BME280_pressure;Samples;Min_cycle;Max_cycle;Signal;HPM_P1;HPM_P2
2022/10/29 00:01:10;;;;;;;7.28;3.97;;;16.60;71.70;;;19.65;47.54;98338.69;4907412;29;20064;-53
2022/10/29 00:03:38;;;;;;;8.35;4.10;;;16.60;72.00;;;19.63;47.34;98340.78;4907045;29;20331;-50
2022/10/29 00:06:10;;;;;;;10.20;3.70;;;16.60;72.00;;;19.63;47.41;98330.78;4906124;29;20059;-47
2022/10/29 00:08:40;;;;;;;14.70;4.72;;;16.60;71.60;;;19.65;47.28;98333.31;4907037;29;20224;-50
2022/10/29 00:11:17;;;;;;;11.30;3.80;;;16.60;71.50;;;19.68;47.18;98332.91;4907474;29;20078;-51
2022/10/29 00:13:47;;;;;;;11.93;4.55;;;16.70;71.50;;;19.67;47.27;98323.13;4907271;29;20343;-47
2022/10/29 00:16:19;;;;;;;9.00;3.70;;;16.70;71.30;;;19.63;47.45;98325.38;4906648;29;20049;-49
2022/10/29 00:18:48;;;;;;;6.40;3.85;;;16.60;71.70;;;19.59;47.54;98324.13;4907149;29;20048;-48
2022/10/29 00:21:19;;;;;;;9.40;3.83;;;16.50;72.30;;;19.56;47.53;98332.66;4906847;29;20048;-51
2022/10/29 00:23:49;;;;;;;9.38;4.22;;;16.50;72.30;;;19.50;47.73;98328.03;4906240;29;20368;-49
2022/10/29 00:26:20;;;;;;;10.30;4.72;;;16.40;72.80;;;19.45;47.71;98328.66;4906397;29;20223;-47
2022/10/29 00:28:52;;;;;;;9.40;4.93;;;16.30;73.10;;;19.45;47.84;98328.66;4907083;29;20048;-49
2022/10/29 00:31:24;;;;;;;8.50;4.45;;;16.30;73.30;;;19.43;47.85;98316.41;4890483;29;20049;-49
2022/10/29 00:33:54;;;;;;;9.70;4.13;;;16.30;73.20;;;19.40;47.99;98306.81;4906830;29;20066;-49
2022/10/29 00:36:28;;;;;;;8.68;4.63;;;16.30;73.40;;;19.40;47.94;98304.13;4905977;29;20253;-47
2022/10/29 00:38:56;;;;;;;7.85;3.67;;;16.30;73.60;;;19.40;47.83;98316.78;4907149;29;20057;-51
2022/10/29 00:41:28;;;;;;;13.15;4.28;;;16.40;73.30;;;19.41;47.88;98315.78;4906670;29;20060;-49
2022/10/29 00:44:17;;;;;;;11.10;3.88;;;16.40;73.30;;;19.36;47.90;98321.75;4906920;29;20052;-53
2022/10/29 00:46:51;;;;;;;9.40;4.00;;;16.30;73.80;;;19.31;48.21;98328.78;4906393;29;20354;-50
2022/10/29 00:49:20;;;;;;;7.93;4.57;;;16.20;74.00;;;19.26;48.41;98332.09;4890695;29;20052;-49
2022/10/29 00:51:48;;;;;;;12.80;6.00;;;16.20;74.40;;;19.23;48.55;98327.94;4890013;29;20347;-47
2022/10/29 00:54:17;;;;;;;9.48;4.40;;;16.20;74.80;;;19.21;48.76;98321.06;4889777;29;20057;-46
2022/10/29 00:56:53;;;;;;;12.05;4.55;;;16.20;75.00;;;19.23;48.49;98327.09;4889952;29;20057;-49
2022/10/29 00:59:21;;;;;;;8.32;4.13;;;16.20;74.50;;;19.23;48.78;98324.41;4890923;29;20067;-48
2022/10/29 01:01:49;;;;;;;7.25;3.65;;;16.30;74.50;;;19.21;48.47;98321.91;4890157;29;20056;-50
2022/10/29 01:04:19;;;;;;;15.38;4.72;;;16.20;74.30;;;19.21;48.66;98318.38;4889934;29;20049;-52
2022/10/29 01:06:48;;;;;;;9.77;4.65;;;16.20;74.50;;;19.20;48.76;98322.94;4906220;29;20058;-51
2022/10/29 01:09:16;;;;;;;9.45;5.55;;;16.20;74.80;;;19.21;48.63;98327.31;4887830;29;20049;-47
2022/10/29 01:12:34;;;;;;;7.75;4.10;;;16.20;74.80;;;19.20;48.72;98324.81;4906601;29;20059;-50
2022/10/29 01:15:13;;;;;;;14.30;5.40;;;16.20;75.50;;;19.25;48.83;98328.56;4871205;29;20068;-48
2022/10/29 01:18:23;;;;;;;10.23;4.47;;;16.20;75.90;;;19.23;48.75;98313.59;4906190;29;20052;-48
2022/10/29 01:21:06;;;;;;;12.40;5.20;;;16.20;76.20;;;19.24;48.99;98301.78;4906634;29;20056;-47
2022/10/29 01:24:17;;;;;;;13.45;4.38;;;16.20;76.10;;;19.21;48.85;98308.44;4906302;29;20053;-48
2022/10/29 01:27:16;;;;;;;14.57;5.28;;;16.30;76.30;;;19.20;48.86;98305.91;4905377;29;20063;-48
2022/10/29 01:30:30;;;;;;;9.88;4.80;;;16.20;76.00;;;19.14;48.72;98312.94;4887787;29;20258;-49
2022/10/29 01:33:49;;;;;;;11.07;4.05;;;16.10;75.40;;;19.14;48.68;98307.56;4887586;29;20221;-50
2022/10/29 01:36:50;;;;;;;12.48;4.13;;;16.20;74.70;;;19.13;48.45;98300.47;4874996;29;20061;-50
2022/10/29 01:39:56;;;;;;;8.50;4.22;;;16.20;73.90;;;19.15;48.41;98303.81;4897865;29;20063;-52
2022/10/29 01:42:40;;;;;;;10.63;4.80;;;16.20;73.90;;;19.16;48.32;98308.19;4891544;29;20060;-49
2022/10/29 01:45:20;;;;;;;;;;;16.20;73.80;;;19.27;48.15;98287.91;4890856;29;20107;-50
2022/10/29 01:48:05;;;;;;;5.30;3.20;;;16.20;74.20;;;19.21;48.19;98294.06;4904547;29;19930;-47
2022/10/29 01:50:36;;;;;;;8.40;5.32;;;16.10;74.50;;;19.19;48.29;98296.13;4904527;29;20053;-48
2022/10/29 01:53:05;;;;;;;7.45;4.00;;;16.10;74.20;;;19.18;48.22;98291.78;4904841;29;20247;-52
2022/10/29 01:55:34;;;;;;;10.07;5.35;;;16.20;73.90;;;19.21;48.18;98280.56;4904619;29;20055;-52
2022/10/29 01:58:04;;;;;;;9.57;4.03;;;16.30;73.60;;;19.24;48.30;98281.00;4890858;29;20053;-53
2022/10/29 02:01:11;;;;;;;12.10;5.43;;;16.30;73.60;;;19.27;48.23;98272.53;4890385;29;20053;-47
2022/10/29 02:03:53;;;;;;;9.02;4.55;;;16.30;73.60;;;19.30;48.10;98268.59;4890790;29;20052;-49
2022/10/29 02:07:05;;;;;;;7.40;3.83;;;16.30;73.50;;;19.32;47.85;98266.50;4890100;29;20056;-48
2022/10/29 02:09:40;;;;;;;9.90;4.32;;;16.30;72.90;;;19.31;47.86;98261.31;4890158;29;20064;-50
2022/10/29 02:12:21;;;;;;;14.02;3.75;;;16.30;72.90;;;19.28;47.61;98262.56;4904156;29;20060;-52
2022/10/29 02:14:59;;;;;;;10.88;4.70;;;16.30;72.10;;;19.28;48.04;98257.16;4903654;29;20057;-49
2022/10/29 02:17:33;;;;;;;9.68;4.30;;;16.40;72.60;;;19.27;47.80;98259.03;4904861;29;20063;-47
2022/10/29 02:20:11;;;;;;;12.35;4.53;;;16.30;72.60;;;19.32;47.97;98257.59;4890788;29;20056;-49
2022/10/29 02:22:39;;;;;;;6.72;4.05;;;16.30;72.80;;;19.31;47.88;98255.91;4890428;29;20057;-48
2022/10/29 02:25:09;;;;;;;11.43;4.60;;;16.30;72.80;;;19.27;47.67;98259.03;4889596;29;20066;-48
2022/10/29 02:27:38;;;;;;;8.75;4.30;;;16.30;72.60;;;19.26;47.90;98260.06;4890310;29;20044;-49
2022/10/29 02:30:07;;;;;;;9.40;4.63;;;16.20;72.80;;;19.25;48.01;98244.03;4889995;29;20045;-47
2022/10/29 02:32:35;;;;;;;10.63;4.78;;;16.20;73.00;;;19.25;47.92;98250.31;4890081;29;20369;-48
2022/10/29 02:35:04;;;;;;;12.65;4.43;;;16.30;73.10;;;19.24;47.82;98255.91;4889836;29;20056;-51
2022/10/29 02:37:32;;;;;;;8.95;3.92;;;16.20;72.90;;;19.19;47.88;98253.81;4889959;29;20055;-49
2022/10/29 02:40:00;;;;;;;13.70;4.50;;;16.10;73.10;;;19.16;47.94;98253.38;4889873;29;20053;-48
2022/10/29 02:42:28;;;;;;;11.75;4.28;;;16.10;73.20;;;19.15;47.94;98246.31;4889773;29;20057;-50
2022/10/29 02:44:56;;;;;;;9.32;5.13;;;16.10;73.20;;;19.10;47.93;98252.31;4889278;29;20055;-49
2022/10/29 02:47:24;;;;;;;11.77;4.82;;;16.00;73.20;;;19.10;47.82;98244.22;4889182;29;20053;-51
2022/10/29 02:49:52;;;;;;;11.05;3.78;;;16.00;73.20;;;19.11;47.91;98239.66;4889656;29;20343;-52
2022/10/29 02:52:20;;;;;;;9.10;4.30;;;16.00;73.40;;;19.06;48.21;98240.25;4889594;29;20055;-50
2022/10/29 02:54:49;;;;;;;11.13;4.25;;;16.00;73.70;;;19.03;48.01;98252.28;4889294;29;20053;-52
2022/10/29 02:57:17;;;;;;;11.57;5.03;;;16.00;73.60;;;18.98;48.33;98246.66;4889789;29;20063;-51
2022/10/29 02:59:45;;;;;;;11.35;5.25;;;15.90;73.60;;;18.98;48.01;98262.00;4889556;29;20053;-48
2022/10/29 03:02:13;;;;;;;12.57;4.60;;;15.90;73.50;;;18.90;48.15;98254.91;4889582;29;20322;-48
2022/10/29 03:04:43;;;;;;;6.38;3.78;;;15.90;73.80;;;18.86;48.27;98254.50;4889179;29;20053;-52
2022/10/29 03:07:11;;;;;;;17.90;5.63;;;15.80;74.00;;;18.84;48.27;98258.41;4889310;29;20053;-50
2022/10/29 03:09:39;;;;;;;9.88;3.78;;;15.80;74.10;;;18.80;48.53;98257.13;4888256;29;20239;-46
2022/10/29 03:12:07;;;;;;;10.75;4.78;;;15.80;74.70;;;18.75;48.72;98255.00;4889158;29;20055;-49
2022/10/29 03:14:35;;;;;;;7.38;4.60;;;15.70;75.10;;;18.73;48.76;98256.22;4889272;29;20057;-49
2022/10/29 03:17:04;;;;;;;11.23;5.63;;;15.70;75.40;;;18.67;48.96;98260.56;4889207;29;20362;-47
2022/10/29 03:19:32;;;;;;;12.65;5.93;;;15.60;75.60;;;18.64;49.19;98256.38;4889239;29;20239;-50
2022/10/29 03:22:00;;;;;;;10.80;5.78;;;15.60;75.90;;;18.67;48.85;98249.78;4889393;29;20055;-49
2022/10/29 03:24:28;;;;;;;11.32;6.30;;;15.60;75.70;;;18.66;48.95;98243.53;4888333;29;20056;-52
2022/10/29 03:26:56;;;;;;;12.95;5.50;;;15.60;76.00;;;18.68;49.05;98241.47;4889226;29;20053;-51
2022/10/29 03:29:24;;;;;;;12.27;5.20;;;15.60;75.90;;;18.70;49.07;98247.50;4888815;29;20055;-52
2022/10/29 03:31:52;;;;;;;11.88;5.35;;;15.70;75.80;;;18.69;49.01;98243.16;4889116;29;20053;-48
2022/10/29 03:34:20;;;;;;;11.35;6.10;;;15.60;75.70;;;18.66;49.05;98240.84;4888755;29;20239;-50
2022/10/29 03:36:49;;;;;;;13.95;7.05;;;15.60;76.00;;;18.66;49.06;98248.94;4888836;29;20074;-48
2022/10/29 03:39:17;;;;;;;15.93;8.30;;;15.60;75.80;;;18.69;48.83;98243.16;4889099;29;20057;-52
2022/10/29 03:41:45;;;;;;;13.43;5.95;;;15.60;75.50;;;18.70;48.89;98235.88;4889023;29;20059;-51
2022/10/29 03:44:13;;;;;;;9.27;5.00;;;15.60;75.40;;;18.72;49.06;98239.22;4888237;29;20055;-49
2022/10/29 03:46:42;;;;;;;12.00;5.20;;;15.70;75.60;;;18.72;48.80;98247.31;4888853;29;20048;-47
2022/10/29 03:49:10;;;;;;;13.07;6.03;;;15.70;75.20;;;18.72;48.92;98236.53;4888201;29;20053;-49
2022/10/29 03:51:38;;;;;;;14.60;6.15;;;15.70;75.40;;;18.69;49.06;98237.75;4888861;29;20064;-49
2022/10/29 03:54:06;;;;;;;11.63;5.72;;;15.70;75.80;;;18.66;49.13;98240.84;4888428;29;20055;-52
2022/10/29 03:56:34;;;;;;;10.48;5.45;;;15.60;75.70;;;18.67;49.20;98239.81;4889279;29;20067;-47
2022/10/29 03:59:02;;;;;;;9.23;5.28;;;15.70;75.90;;;18.67;49.24;98233.59;4887445;29;20057;-50
2022/10/29 04:01:31;;;;;;;10.65;6.80;;;15.70;76.10;;;18.66;49.09;98246.22;4888754;29;20212;-50
2022/10/29 04:03:59;;;;;;;11.23;6.13;;;15.60;75.80;;;18.64;49.18;98232.13;4888321;29;20048;-49
2022/10/29 04:06:27;;;;;;;13.98;5.80;;;15.60;75.90;;;18.65;49.08;98235.63;4888495;29;20057;-48
2022/10/29 04:08:55;;;;;;;15.27;6.93;;;15.70;75.90;;;18.58;48.90;98246.41;4885834;29;20053;-49
2022/10/29 04:11:23;;;;;;;11.88;5.75;;;15.60;75.30;;;18.44;49.13;98242.78;4887614;29;20111;-53
2022/10/29 04:13:52;;;;;;;11.93;5.80;;;15.40;75.50;;;18.42;49.28;98239.47;4888992;29;20369;-49
2022/10/29 04:16:21;;;;;;;9.60;5.50;;;15.40;75.70;;;18.47;49.23;98244.25;4888023;29;20057;-50
2022/10/29 04:18:49;;;;;;;13.13;6.18;;;15.50;75.80;;;18.54;49.08;98247.00;4887375;29;20067;-47
2022/10/29 04:21:17;;;;;;;14.70;6.68;;;15.60;76.00;;;18.58;48.94;98240.19;4888300;29;20048;-50
2022/10/29 04:24:06;;;;;;;20.00;10.63;;;15.60;75.20;;;18.61;48.90;98234.38;4888278;29;20057;-50
2022/10/29 04:26:54;;;;;;;22.48;13.05;;;15.70;75.00;;;18.59;48.89;98239.13;4888283;29;20047;-50
2022/10/29 04:29:42;;;;;;;25.42;12.00;;;15.60;75.20;;;18.61;48.80;98246.00;4887923;29;20049;-52
2022/10/29 04:32:10;;;;;;;17.20;10.43;;;15.60;75.00;;;18.59;48.90;98241.84;4888386;29;20059;-52
2022/10/29 04:34:38;;;;;;;17.00;10.10;;;15.60;75.00;;;18.55;48.83;98236.00;4887793;29;20056;-51
2022/10/29 04:37:06;;;;;;;18.45;9.75;;;15.60;75.00;;;18.55;49.03;98238.69;4888242;29;20053;-51
2022/10/29 04:39:34;;;;;;;18.70;9.13;;;15.60;74.90;;;18.57;48.83;98247.44;4898760;29;20092;-47
2022/10/29 04:42:03;;;;;;;12.23;7.07;;;15.60;74.90;;;18.55;48.96;98236.00;4887982;29;20063;-52
2022/10/29 04:44:31;;;;;;;10.32;6.07;;;15.50;74.90;;;18.54;48.99;98249.69;4887467;29;20057;-48
2022/10/29 04:46:59;;;;;;;17.52;7.15;;;15.50;75.10;;;18.48;48.78;98246.75;4887848;29;20236;-48
2022/10/29 04:49:27;;;;;;;17.55;8.80;;;15.60;74.70;;;18.53;48.84;98256.09;4888707;29;20059;-50
2022/10/29 04:51:55;;;;;;;31.17;10.20;;;15.50;74.50;;;18.53;48.72;98248.03;4888420;29;20355;-48
2022/10/29 04:54:23;;;;;;;16.92;9.40;;;15.50;74.30;;;18.52;48.86;98243.69;4887686;29;20057;-47
2022/10/29 04:56:51;;;;;;;14.90;8.95;;;15.60;74.50;;;18.53;48.87;98246.16;4887433;29;20068;-51
2022/10/29 04:59:20;;;;;;;17.35;8.70;;;15.60;74.30;;;18.47;48.74;98245.06;4888025;29;20057;-47
2022/10/29 05:01:48;;;;;;;19.13;10.05;;;15.50;74.50;;;18.42;48.81;98247.53;4887910;29;20068;-51
2022/10/29 05:04:16;;;;;;;22.00;10.07;;;15.40;75.00;;;18.39;48.84;98249.78;4887610;29;20057;-47
2022/10/29 05:06:45;;;;;;;20.73;11.15;;;15.40;75.00;;;18.36;49.06;98242.09;4888224;29;20059;-49
2022/10/29 05:09:13;;;;;;;29.58;11.57;;;15.40;75.40;;;18.32;49.29;98240.81;4889021;29;20049;-50
2022/10/29 05:11:41;;;;;;;16.98;9.95;;;15.30;75.70;;;18.30;49.20;98243.75;4891503;29;20110;-51
2022/10/29 05:14:09;;;;;;;16.55;8.60;;;15.30;75.80;;;18.26;49.33;98253.22;4891204;29;20053;-52
2022/10/29 05:16:37;;;;;;;18.08;9.40;;;15.30;75.80;;;18.22;49.35;98241.16;4905689;29;20359;-48
2022/10/29 05:19:05;;;;;;;19.55;8.55;;;15.20;75.90;;;18.19;49.46;98250.47;4892224;29;20304;-49
2022/10/29 05:21:34;;;;;;;17.38;6.90;;;15.20;76.50;;;18.16;49.52;98252.72;4891328;29;20053;-50
2022/10/29 05:24:02;;;;;;;11.35;6.70;;;15.10;76.40;;;18.14;49.66;98249.41;4891428;29;20063;-52
2022/10/29 05:26:31;;;;;;;14.02;7.85;;;15.10;76.70;;;18.08;49.67;98251.84;4890868;29;20049;-48
2022/10/29 05:28:59;;;;;;;17.55;6.72;;;15.00;76.70;;;18.05;49.64;98251.41;4891361;29;20059;-52
2022/10/29 05:31:27;;;;;;;28.30;7.97;;;15.00;77.30;;;17.98;49.92;98250.50;4905588;29;20050;-50
2022/10/29 05:33:56;;;;;;;14.65;7.50;;;14.90;77.80;;;17.90;49.83;98244.22;4891019;29;20052;-49
2022/10/29 05:36:24;;;;;;;15.52;7.13;;;14.80;78.20;;;17.84;50.22;98241.47;4890732;29;20052;-49
2022/10/29 05:38:52;;;;;;;17.92;6.57;;;14.70;78.70;;;17.78;50.12;98243.06;4890744;29;20056;-48
2022/10/29 05:41:20;;;;;;;13.20;7.55;;;14.70;79.20;;;17.75;50.44;98240.72;4891297;29;20071;-51
2022/10/29 05:43:49;;;;;;;13.05;8.75;;;14.60;79.30;;;17.74;50.28;98236.38;4890962;29;20394;-48
2022/10/29 05:46:17;;;;;;;14.38;7.05;;;14.60;79.40;;;17.71;50.37;98234.91;4890382;29;20067;-53
2022/10/29 05:48:45;;;;;;;10.32;6.18;;;14.70;79.40;;;17.70;50.27;98241.31;4889910;29;20049;-52
2022/10/29 05:51:13;;;;;;;11.32;7.95;;;14.70;79.30;;;17.66;50.23;98229.28;4890792;29;20366;-51
2022/10/29 05:53:42;;;;;;;14.50;6.07;;;14.60;79.50;;;17.64;50.34;98242.09;4890683;29;20228;-48
2022/10/29 05:56:10;;;;;;;11.77;6.13;;;14.50;79.80;;;17.61;50.53;98239.78;4890857;29;20063;-49
2022/10/29 05:58:38;;;;;;;14.60;5.18;;;14.50;79.90;;;17.62;50.59;98245.97;4890768;29;20059;-51
2022/10/29 06:01:08;;;;;;;16.35;6.15;;;14.50;80.00;;;17.59;50.40;98243.69;4890830;29;20053;-49
2022/10/29 06:03:38;;;;;;;10.15;5.20;;;14.60;80.00;;;17.57;50.48;98237.66;4889537;29;20145;-51
2022/10/29 06:06:07;;;;;;;15.20;6.25;;;14.50;80.10;;;17.51;50.65;98248.16;4889049;29;20224;-52
2022/10/29 06:08:36;;;;;;;12.25;6.32;;;14.40;80.20;;;17.49;50.54;98247.53;4889939;29;20369;-50
2022/10/29 06:11:04;;;;;;;10.75;4.78;;;14.40;80.20;;;17.46;50.60;98239.00;4891313;29;20053;-53
2022/10/29 06:13:32;;;;;;;10.85;5.05;;;14.40;80.50;;;17.41;51.07;98244.97;4890572;29;20045;-49
2022/10/29 06:16:01;;;;;;;10.13;5.78;;;14.40;80.90;;;17.41;51.17;98255.72;4890026;29;20052;-50
2022/10/29 06:18:29;;;;;;;14.60;5.10;;;14.40;81.00;;;17.40;51.04;98248.66;4890088;29;20049;-53
2022/10/29 06:20:59;;;;;;;13.85;6.20;;;14.40;81.20;;;17.41;51.28;98244.97;4889565;29;20056;-53
2022/10/29 06:23:28;;;;;;;12.93;5.20;;;14.40;81.40;;;17.46;51.18;98247.06;4890380;29;20053;-50
2022/10/29 06:26:00;;;;;;;8.77;4.63;;;14.50;81.20;;;17.49;51.00;98252.91;4888595;29;20063;-53
2022/10/29 06:28:29;;;;;;;11.98;4.75;;;14.50;81.30;;;17.50;51.19;98246.47;4890340;29;20053;-50
2022/10/29 06:31:01;;;;;;;9.93;5.53;;;14.50;81.10;;;17.55;50.99;98245.94;4889776;29;20045;-50
2022/10/29 06:33:30;;;;;;;7.28;4.63;;;14.50;81.00;;;17.53;50.88;98250.69;4889082;29;20049;-51
2022/10/29 06:36:00;;;;;;;12.73;4.72;;;14.50;80.70;;;17.55;50.89;98253.19;4889666;29;20306;-51
2022/10/29 06:38:28;;;;;;;9.85;4.88;;;14.50;80.70;;;17.58;50.63;98244.72;4892768;29;20071;-54
2022/10/29 06:40:57;;;;;;;11.43;6.28;;;14.60;80.10;;;17.60;50.75;98246.19;4890394;29;20060;-51
2022/10/29 06:43:25;;;;;;;11.75;7.03;;;14.70;79.90;;;17.63;50.49;98245.81;4908762;29;20049;-51
2022/10/29 06:45:53;;;;;;;9.75;6.18;;;14.60;79.70;;;17.66;50.38;98244.56;4907026;29;20075;-52
2022/10/29 06:48:21;;;;;;;10.55;5.55;;;14.70;79.60;;;17.68;50.46;98242.53;4907535;29;20058;-52
2022/10/29 06:50:51;;;;;;;11.38;6.80;;;14.70;79.70;;;17.70;50.33;98246.72;4908900;29;20057;-52
2022/10/29 06:53:20;;;;;;;12.93;6.13;;;14.70;79.50;;;17.73;50.52;98250.03;4908204;29;20369;-53
2022/10/29 06:55:48;;;;;;;15.98;5.95;;;14.80;79.30;;;17.74;50.41;98249.00;4908378;29;20055;-52
2022/10/29 06:58:19;;;;;;;6.85;4.13;;;14.80;79.10;;;17.77;50.52;98240.56;4908542;29;20068;-48
2022/10/29 07:00:47;;;;;;;9.73;5.22;;;14.80;79.00;;;17.82;50.39;98243.50;4907387;29;20053;-53
2022/10/29 07:03:19;;;;;;;9.32;4.60;;;14.90;79.00;;;17.86;50.48;98247.50;4908213;29;20246;-52
2022/10/29 07:05:55;;;;;;;13.20;6.53;;;14.90;78.80;;;17.90;50.27;98244.22;4906918;29;20063;-48
2022/10/29 07:08:24;;;;;;;7.63;4.35;;;15.00;78.30;;;17.95;50.13;98253.59;4907968;29;20059;-52
2022/10/29 07:10:53;;;;;;;9.00;4.93;;;15.00;78.10;;;17.97;50.16;98252.38;4904784;29;20052;-52
2022/10/29 07:13:21;;;;;;;7.97;4.10;;;15.10;77.90;;;18.02;50.10;98247.22;4908030;29;20527;-51
2022/10/29 07:15:50;;;;;;;10.32;3.88;;;15.20;77.70;;;18.09;49.73;98250.00;4907791;29;20063;-48
2022/10/29 07:18:18;;;;;;;7.10;4.38;;;15.30;77.10;;;18.15;50.13;98257.28;4908473;29;20269;-54
2022/10/29 07:20:46;;;;;;;12.15;4.70;;;15.30;77.30;;;18.22;50.00;98258.19;4907880;29;20054;-53
2022/10/29 07:23:14;;;;;;;11.05;4.28;;;15.40;78.30;;;18.28;50.27;98254.72;4907922;29;20052;-52
2022/10/29 07:25:42;;;;;;;12.05;4.50;;;15.50;77.70;;;18.32;50.22;98249.75;4907744;29;20250;-50
2022/10/29 07:28:15;;;;;;;9.02;4.40;;;15.50;77.70;;;18.39;50.15;98250.63;4907870;29;20061;-50
2022/10/29 07:30:44;;;;;;;14.88;6.20;;;15.50;77.60;;;18.45;50.04;98252.53;4907621;29;20055;-51
2022/10/29 07:33:13;;;;;;;8.38;5.05;;;15.60;77.70;;;18.49;49.89;98253.81;4906408;29;20369;-49
2022/10/29 07:35:43;;;;;;;10.20;5.38;;;15.60;77.50;;;18.54;49.89;98257.78;4907133;29;20055;-49
2022/10/29 07:38:12;;;;;;;11.48;5.20;;;15.60;77.80;;;18.60;49.98;98268.59;4907372;29;20064;-50
2022/10/29 07:40:48;;;;;;;12.52;5.65;;;15.70;77.80;;;18.67;50.08;98268.66;4906754;29;20057;-50
2022/10/29 07:43:17;;;;;;;9.40;4.35;;;15.80;78.10;;;18.72;50.21;98268.88;4908088;29;20070;-52
2022/10/29 07:45:48;;;;;;;11.52;4.82;;;15.80;78.10;;;18.75;50.34;98278.47;4906857;29;20052;-51
2022/10/29 07:48:19;;;;;;;10.98;4.15;;;15.90;78.20;;;18.82;50.33;98277.47;4907490;29;20053;-51
2022/10/29 07:50:48;;;;;;;11.90;4.47;;;16.00;78.30;;;18.89;50.28;98274.81;4907614;29;20070;-53
2022/10/29 07:53:16;;;;;;;12.88;5.45;;;16.00;78.00;;;18.99;50.35;98274.47;4890905;29;20045;-50
2022/10/29 07:55:54;;;;;;;12.25;4.93;;;16.20;78.20;;;19.08;50.43;98273.28;4906813;29;20058;-49
2022/10/29 07:58:23;;;;;;;10.15;5.43;;;16.20;78.50;;;19.17;50.44;98274.75;4907072;29;20079;-51
2022/10/29 08:00:52;;;;;;;11.30;6.03;;;16.30;78.60;;;19.24;50.51;98262.13;4907208;29;20060;-50
2022/10/29 08:03:21;;;;;;;11.57;5.97;;;16.50;78.70;;;19.31;50.73;98270.25;4907077;29;20058;-51
2022/10/29 08:05:49;;;;;;;11.20;5.25;;;16.50;79.00;;;19.39;50.58;98274.66;4906726;29;20118;-51
2022/10/29 08:08:24;;;;;;;11.55;5.25;;;16.60;78.70;;;19.45;50.52;98280.06;4906902;29;20249;-51
2022/10/29 08:10:52;;;;;;;9.85;5.30;;;16.70;78.50;;;19.52;50.54;98277.38;4907691;29;20063;-51
2022/10/29 08:13:20;;;;;;;9.88;6.07;;;16.80;78.60;;;19.56;50.55;98278.66;4906843;29;20358;-52
2022/10/29 08:15:48;;;;;;;9.02;4.45;;;16.80;78.70;;;19.63;50.39;98278.66;4906723;29;20272;-53
2022/10/29 08:18:17;;;;;;;11.63;5.35;;;16.80;78.80;;;19.64;50.49;98277.63;4890232;29;20053;-51
2022/10/29 08:20:45;;;;;;;7.80;5.78;;;16.80;78.90;;;19.66;50.59;98272.84;4907050;29;20057;-52
2022/10/29 08:23:14;;;;;;;9.65;5.22;;;16.90;79.30;;;19.67;50.96;98282.59;4907072;29;20351;-49
2022/10/29 08:25:42;;;;;;;9.45;6.10;;;16.90;79.40;;;19.70;51.14;98287.63;4905981;29;20055;-54
2022/10/29 08:28:14;;;;;;;7.35;4.90;;;16.90;79.70;;;19.72;51.29;98277.47;4906633;29;20055;-52
2022/10/29 08:30:47;;;;;;;12.02;5.22;;;16.90;79.90;;;19.77;51.20;98277.66;4890607;29;20048;-52
2022/10/29 08:33:16;;;;;;;11.82;5.53;;;17.00;80.10;;;19.81;51.19;98273.53;4890910;29;20067;-51
2022/10/29 08:35:44;;;;;;;9.25;5.25;;;17.00;80.50;;;19.84;51.05;98267.72;4906132;29;20048;-50
2022/10/29 08:38:12;;;;;;;11.02;4.80;;;17.00;80.40;;;19.89;50.84;98268.97;4906541;29;20090;-50
2022/10/29 08:41:18;;;;;;;9.68;4.70;;;17.10;80.00;;;19.92;50.61;98276.66;4906692;29;20254;-49
2022/10/29 08:44:39;;;;;;;10.73;5.28;;;17.10;79.70;;;19.94;50.81;98269.19;4907336;29;20053;-51
2022/10/29 08:47:20;;;;;;;8.93;5.32;;;17.20;79.80;;;19.94;50.75;98275.41;4910825;29;20060;-49
2022/10/29 08:49:57;;;;;;;13.57;5.22;;;17.20;79.50;;;19.96;50.70;98277.91;4894669;29;20059;-53
2022/10/29 08:52:36;;;;;;;8.70;4.28;;;17.20;79.10;;;19.99;50.57;98280.22;4910584;29;20049;-52
2022/10/29 08:55:25;;;;;;;10.50;4.55;;;17.30;78.90;;;20.03;50.50;98281.47;4894209;29;20051;-51
2022/10/29 08:57:58;;;;;;;11.65;6.63;;;17.20;79.10;;;20.08;51.47;98283.53;4910314;29;20052;-47
2022/10/29 09:00:37;;;;;;;9.43;5.33;;;17.30;80.70;;;20.12;51.96;98282.09;4894472;29;20052;-55
2022/10/29 09:03:11;;;;;;;8.18;5.65;;;17.30;81.60;;;20.14;51.75;98280.84;4894337;29;20052;-51
2022/10/29 09:05:58;;;;;;;10.20;4.88;;;17.40;81.90;;;20.19;51.63;98281.06;4908964;29;20312;-51
2022/10/29 09:09:25;;;;;;;8.35;4.85;;;17.50;83.60;;;20.22;51.56;98280.66;4908758;29;20048;-51
2022/10/29 09:12:28;;;;;;;12.32;6.65;;;17.50;83.10;;;20.29;51.96;98279.81;4909539;29;20070;-50
2022/10/29 09:15:40;;;;;;;7.53;4.72;;;17.60;83.60;;;20.35;52.18;98285.19;4896138;29;20060;-50
2022/10/29 09:18:55;;;;;;;11.88;5.68;;;17.60;83.70;;;20.42;52.16;98280.63;4896052;29;20049;-50
2022/10/29 09:21:52;;;;;;;9.55;4.93;;;17.70;84.20;;;20.53;52.31;98283.72;4909998;29;20053;-48
2022/10/29 09:24:58;;;;;;;11.65;4.60;;;17.80;83.70;;;20.59;52.01;98277.50;4895490;29;20238;-49
2022/10/29 09:27:56;;;;;;;7.85;5.10;;;17.90;83.70;;;20.69;51.92;98277.13;4910054;29;20243;-49
2022/10/29 09:30:30;;;;;;;12.32;6.75;;;18.00;83.60;;;20.80;52.36;98273.75;4909767;29;20044;-48
2022/10/29 09:33:09;;;;;;;;;;;18.20;83.40;;;20.98;51.79;98271.22;4893517;29;20048;-51
2022/10/29 09:35:52;;;;;;;15.30;5.97;;;18.20;83.60;;;21.01;52.11;98265.38;4909412;29;19934;-49
2022/10/29 09:38:30;;;;;;;10.88;6.32;;;18.30;83.60;;;21.06;52.30;98264.72;4909828;29;20079;-48
2022/10/29 09:41:01;;;;;;;12.73;6.72;;;18.40;83.30;;;21.09;52.04;98264.28;4893520;29;20239;-51
2022/10/29 09:43:44;;;;;;;8.73;5.93;;;18.50;83.30;;;21.14;52.38;98258.25;4909760;29;20045;-52
2022/10/29 09:46:47;;;;;;;11.68;5.85;;;18.60;83.60;;;21.20;52.40;98260.91;4908791;29;20056;-49
2022/10/29 09:49:58;;;;;;;12.15;6.70;;;18.60;83.50;;;21.28;52.13;98257.13;4910209;29;20052;-49
2022/10/29 09:52:42;;;;;;;12.10;6.30;;;18.70;84.00;;;21.33;52.36;98256.50;4895845;29;20058;-50
2022/10/29 09:55:26;;;;;;;11.98;5.00;;;18.70;83.80;;;21.34;52.81;98255.44;4908679;29;20071;-50
2022/10/29 09:57:56;;;;;;;11.88;6.35;;;18.80;83.70;;;;;;4893777;29;20044;-51
2022/10/29 10:00:28;;;;;;;11.73;5.93;;;18.80;83.80;;;21.38;53.05;98257.53;4892940;29;20051;-50
2022/10/29 10:03:14;;;;;;;11.02;6.13;;;18.80;83.80;;;21.45;52.57;98259.41;4909570;29;20070;-48
2022/10/29 10:06:15;;;;;;;9.52;6.43;;;18.90;84.10;;;21.49;52.48;98263.31;4892787;29;20369;-53
2022/10/29 10:09:03;;;;;;;11.30;6.72;;;18.90;84.30;;;21.53;52.92;98259.97;4853409;29;20052;-51
2022/10/29 10:11:38;;;;;;;10.27;6.28;;;18.90;84.50;;;21.55;52.78;98267.88;4906786;29;20052;-49
2022/10/29 10:14:21;;;;;;;9.48;6.10;;;18.90;84.60;;;21.58;52.77;98257.44;4908891;29;20061;-48
2022/10/29 10:17:00;;;;;;;10.40;5.72;;;19.00;84.50;;;21.63;52.76;98262.19;4893186;29;20048;-53
2022/10/29 10:19:31;;;;;;;12.45;5.90;;;19.00;84.50;;;21.62;52.89;98253.25;4892656;29;20059;-48
2022/10/29 10:22:03;;;;;;;14.32;5.93;;;19.00;84.20;;;21.65;52.85;98253.84;4908869;29;20075;-52
2022/10/29 10:24:36;;;;;;;11.00;5.55;;;19.00;84.30;;;21.66;52.50;98250.94;4907931;29;20060;-49
2022/10/29 10:27:17;;;;;;;11.63;5.43;;;19.10;84.30;;;21.70;52.43;98240.50;4892769;29;20053;-53
2022/10/29 10:30:03;;;;;;;10.38;4.78;;;19.10;83.80;;;21.75;52.33;98246.06;4908609;29;20114;-52
2022/10/29 10:32:31;;;;;;;12.65;6.97;;;19.10;83.50;;;21.77;52.10;98244.81;4908836;29;20055;-50
2022/10/29 10:34:59;;;;;;;10.02;4.93;;;19.20;83.40;;;21.80;52.39;98248.97;4907983;29;20238;-52
2022/10/29 10:37:32;;;;;;;9.05;5.22;;;19.20;83.20;;;21.84;52.44;98239.34;4892438;29;20072;-52
2022/10/29 10:40:04;;;;;;;11.98;4.82;;;19.30;83.20;;;21.93;52.19;98245.34;4892330;29;20063;-47
2022/10/29 10:42:38;;;;;;;15.50;5.22;;;19.30;83.20;;;21.97;52.06;98238.44;4907971;29;20062;-52
2022/10/29 10:45:35;;;;;;;10.60;5.82;;;19.40;83.00;;;22.03;52.00;98237.53;4908035;29;20246;-50